Terminal Aerodrome Forecast
Issued by NWS Sterling, VA

Current Version | Previous Version | Text Only | Print | Product List | Glossary Off
Versions: 1 2 3 4 5 6 7 8 9 10 11 12 13 14 15 16 17 18 19 20 21 22 23 24

000
FTUS41 KLWX 212300
TAFIAD
TAF
KIAD 212328Z 2200/2306 16007KT P6SM BKN040
     FM220600 17005KT P6SM BKN030
     FM220800 16004KT 3SM BR BKN008
     FM221300 17004KT P6SM BKN015
     FM221600 16007KT P6SM BKN050
     FM230300 17004KT P6SM SCT050=

USA.gov is the U.S. government's official web portal to all federal, state and local government web resources and services.